Terminal Aerodrome Forecast
Issued by NWS Sterling, VA

Home | Current Version | Previous Version | Text Only | Print | Product List | Glossary On
Versions: 1 2 3 4 5 6 7 8 9 10 11 12 13 14 15 16 17 18 19 20
000
FTUS41 KLWX 182333
TAFCHO
TAF
KCHO 182333Z 1900/1924 10005KT P6SM SKC
     FM190800 03008KT P6SM FEW250
     FM191400 06012KT P6SM BKN130
     FM191600 06011KT 6SM -RA BKN070
     FM191800 05007KT 3SM -RA BKN025
     FM192000 VRB03KT 2SM -RA OVC015
     FM192100 VRB03KT 2SM RA OVC008=

USA.gov is the U.S. government's official web portal to all federal, state and local government web resources and services.